Time;durP1;ratioP1;P1;durP2;ratioP2;P2;SDS_P1;SDS_P2;PMS_P1;PMS_P2;Temp;Humidity;BMP_temperature;BMP_pressure;BME280_temperature;BME280_humidity;BME280_pressure;Samples;Min_cycle;Max_cycle;Signal;HPM_P1;HPM_P2
2023/10/31 00:00:13;;;;;;;;;;;;;;;9.75;100.00;94250.22;10517435;28;2693;-70
2023/10/31 00:05:17;;;;;;;;;;;;;;;9.69;100.00;94262.19;10484352;28;2650;-70
2023/10/31 00:10:23;;;;;;;;;;;;;;;9.61;100.00;94263.72;10510995;28;5188;-71
2023/10/31 00:15:34;;;;;;;;;;;;;;;9.63;100.00;94269.56;10523835;28;2695;-71
2023/10/31 00:20:40;;;;;;;;;;;;;;;9.46;100.00;94261.34;10517647;28;2661;-72
2023/10/31 00:25:49;;;;;;;;;;;;;;;9.37;100.00;94260.50;10522560;28;2571;-72
2023/10/31 00:31:00;;;;;;;;;;;;;;;9.31;100.00;94269.75;10511909;28;2842;-71
2023/10/31 00:36:08;;;;;;;;;;;;;;;9.28;100.00;94273.81;10516655;28;2700;-70
2023/10/31 00:41:12;;;;;;;;;;;;;;;9.30;100.00;94270.84;10518195;28;2638;-69
2023/10/31 00:46:18;;;;;;;;;;;;;;;9.23;100.00;94276.63;10489129;28;2549;-70
2023/10/31 00:51:23;;;;;;;;;;;;;;;9.20;100.00;94266.50;10495521;28;2621;-71
2023/10/31 00:56:26;;;;;;;;;;;;;;;9.19;100.00;94268.38;10534695;28;2838;-71
2023/10/31 01:01:29;;;;;;;;;;;;;;;9.16;100.00;94271.69;10510688;28;2628;-71
2023/10/31 01:06:34;;;;;;;;;;;;;;;9.11;100.00;94273.66;10495584;28;2526;-70
2023/10/31 01:11:38;;;;;;;;;;;;;;;9.10;100.00;94280.91;10511114;28;5193;-70
2023/10/31 01:16:42;;;;;;;;;;;;;;;9.09;100.00;94276.63;10526682;27;2574;-69
2023/10/31 01:21:45;;;;;;;;;;;;;;;9.07;100.00;94284.19;10530071;27;3099;-70
2023/10/31 01:26:48;;;;;;;;;;;;;;;9.06;100.00;94287.97;10517440;28;2656;-69
2023/10/31 01:31:50;;;;;;;;;;;;;;;9.05;100.00;94283.69;10499236;28;2624;-73
2023/10/31 01:37:03;;;;;;;;;;;;;;;9.09;100.00;94287.34;10510627;28;2641;-74
2023/10/31 01:42:05;;;;;;;;;;;;;;;9.13;100.00;94299.06;10513866;28;2534;-72
2023/10/31 01:47:09;;;;;;;;;;;;;;;9.11;100.00;94295.91;10533651;28;2648;-73
2023/10/31 01:52:12;;;;;;;;;;;;;;;9.13;100.00;94292.91;10473679;28;2632;-77
2023/10/31 01:57:15;;;;;;;;;;;;;;;9.13;100.00;94288.34;10513281;28;2697;-75
2023/10/31 02:02:19;;;;;;;;;;;;;;;9.09;100.00;94286.56;10503191;28;2692;-69
2023/10/31 02:07:21;;;;;;;;;;;;;;;9.09;100.00;94297.28;10507234;28;2562;-71
2023/10/31 02:12:24;;;;;;;;;;;;;;;9.08;100.00;94307.22;10496985;28;5070;-71
2023/10/31 02:17:27;;;;;;;;;;;;;;;9.09;100.00;94314.16;10488903;28;2645;-73
2023/10/31 02:22:32;;;;;;;;;;;;;;;9.07;100.00;94316.34;10498534;28;2570;-69
2023/10/31 02:27:37;;;;;;;;;;;;;;;9.01;100.00;94320.22;10524773;28;2577;-70
2023/10/31 02:32:40;;;;;;;;;;;;;;;8.99;100.00;94343.06;10477834;28;2560;-71
2023/10/31 02:37:43;;;;;;;;;;;;;;;8.99;100.00;94333.13;10496420;28;2666;-71
2023/10/31 02:42:48;;;;;;;;;;;;;;;8.92;100.00;94340.78;10509837;28;2592;-70
2023/10/31 02:47:51;;;;;;;;;;;;;;;8.88;100.00;94337.09;10502051;28;2581;-70
2023/10/31 02:52:54;;;;;;;;;;;;;;;8.81;100.00;94342.06;10508680;28;2594;-70
2023/10/31 02:58:00;;;;;;;;;;;;;;;8.72;100.00;94330.47;10510325;28;2829;-70
2023/10/31 03:03:04;;;;;;;;;;;;;;;8.72;100.00;94335.81;10513912;28;2567;-71
2023/10/31 03:08:08;;;;;;;;;;;;;;;8.78;100.00;94350.69;10499234;28;5137;-70
2023/10/31 03:13:14;;;;;;;;;;;;;;;8.79;100.00;94357.66;10492927;28;2835;-71
2023/10/31 03:18:19;;;;;;;;;;;;;;;8.71;100.00;94361.00;10497771;28;2866;-70
2023/10/31 03:23:24;;;;;;;;;;;;;;;8.76;100.00;94374.31;10499563;28;2669;-70
2023/10/31 03:28:27;;;;;;;;;;;;;;;8.74;100.00;94371.94;10534374;28;2548;-69
2023/10/31 03:33:30;;;;;;;;;;;;;;;8.69;100.00;94355.16;10510536;28;2589;-70
2023/10/31 03:38:33;;;;;;;;;;;;;;;8.65;100.00;94346.91;10532866;28;2610;-72
2023/10/31 03:43:36;;;;;;;;;;;;;;;8.60;100.00;94353.16;10519242;28;2572;-70
2023/10/31 03:48:39;;;;;;;;;;;;;;;8.61;100.00;94351.28;10502642;28;2549;-70
2023/10/31 03:53:42;;;;;;;;;;;;;;;8.62;100.00;94348.28;10504685;28;2634;-70
2023/10/31 03:58:48;;;;;;;;;;;;;;;8.63;100.00;94363.28;10500368;28;2736;-70
2023/10/31 04:03:51;;;;;;;;;;;;;;;8.68;100.00;94378.47;10517517;28;2599;-70
2023/10/31 04:08:57;;;;;;;;;;;;;;;8.68;100.00;94385.72;10520082;28;5078;-72
2023/10/31 04:14:00;;;;;;;;;;;;;;;8.66;100.00;94370.72;10499636;28;2600;-69
2023/10/31 04:19:04;;;;;;;;;;;;;;;8.64;100.00;94377.44;10508275;28;2606;-70
2023/10/31 04:24:07;;;;;;;;;;;;;;;8.69;100.00;94406.84;10501979;28;2650;-73
2023/10/31 04:29:14;;;;;;;;;;;;;;;8.68;100.00;94415.19;10501860;28;2632;-71
2023/10/31 04:34:18;;;;;;;;;;;;;;;8.73;100.00;94417.78;10494917;28;2698;-69
2023/10/31 04:39:23;;;;;;;;;;;;;;;8.70;100.00;94411.09;10522124;28;2736;-70
2023/10/31 04:44:26;;;;;;;;;;;;;;;8.64;100.00;94409.59;10481838;28;2667;-71
2023/10/31 04:49:29;;;;;;;;;;;;;;;8.58;100.00;94398.16;10504072;28;2637;-69
2023/10/31 04:54:32;;;;;;;;;;;;;;;8.55;100.00;94406.81;10523291;28;2534;-69
2023/10/31 04:59:36;;;;;;;;;;;;;;;8.52;100.00;94391.31;10533322;28;2590;-69
2023/10/31 05:04:39;;;;;;;;;;;;;;;8.54;100.00;94399.88;10496535;28;2772;-68
2023/10/31 05:09:42;;;;;;;;;;;;;;;8.54;100.00;94405.22;10520252;28;2585;-74
2023/10/31 05:14:48;;;;;;;;;;;;;;;8.50;100.00;94409.56;10519802;28;2602;-70
2023/10/31 05:19:51;;;;;;;;;;;;;;;8.49;100.00;94424.06;10490851;28;2614;-70
2023/10/31 05:24:55;;;;;;;;;;;;;;;8.53;100.00;94435.78;10518894;28;2549;-69
2023/10/31 05:30:03;;;;;;;;;;;;;;;8.58;100.00;94449.06;10504397;28;2597;-69
2023/10/31 05:35:06;;;;;;;;;;;;;;;8.52;100.00;94468.97;10509750;28;2654;-69
2023/10/31 05:40:10;;;;;;;;;;;;;;;8.50;100.00;94459.66;10513848;28;2557;-69
2023/10/31 05:45:13;;;;;;;;;;;;;;;8.40;100.00;94463.31;10515302;28;2612;-69
2023/10/31 05:50:16;;;;;;;;;;;;;;;8.41;100.00;94480.97;10511644;28;2653;-69
2023/10/31 05:55:25;;;;;;;;;;;;;;;8.38;100.00;94481.53;10497997;28;2550;-71
2023/10/31 06:00:28;;;;;;;;;;;;;;;8.37;100.00;94486.09;10508684;28;2653;-69
2023/10/31 06:05:31;;;;;;;;;;;;;;;8.43;100.00;94494.06;10508836;28;2650;-69
2023/10/31 06:10:34;;;;;;;;;;;;;;;8.34;100.00;94500.03;10518965;28;5347;-70
2023/10/31 06:15:37;;;;;;;;;;;;;;;8.39;100.00;94491.94;10492530;28;2574;-70
2023/10/31 06:20:41;;;;;;;;;;;;;;;8.38;100.00;94498.38;10491220;28;2851;-71
2023/10/31 06:25:46;;;;;;;;;;;;;;;8.32;100.00;94504.88;10526015;28;2684;-71
2023/10/31 06:31:02;;;;;;;;;;;;;;;8.35;100.00;94514.22;10511308;28;2633;-69
2023/10/31 06:36:06;;;;;;;;;;;;;;;8.45;100.00;94519.44;10518962;28;2612;-70
2023/10/31 06:41:09;;;;;;;;;;;;;;;8.50;100.00;94505.97;10508104;28;2593;-70
2023/10/31 06:46:14;;;;;;;;;;;;;;;8.52;100.00;94514.50;10500195;28;2831;-71
2023/10/31 06:51:17;;;;;;;;;;;;;;;8.55;100.00;94521.19;10516248;28;2619;-70
2023/10/31 06:56:21;;;;;;;;;;;;;;;8.57;100.00;94533.19;10535927;28;2584;-72
2023/10/31 07:01:27;;;;;;;;;;;;;;;8.61;100.00;94544.94;10519237;28;2557;-70
2023/10/31 07:06:30;;;;;;;;;;;;;;;8.71;100.00;94556.56;10501655;28;2553;-71
2023/10/31 07:11:34;;;;;;;;;;;;;;;8.74;100.00;94566.72;10508534;28;5038;-69
2023/10/31 07:16:37;;;;;;;;;;;;;;;8.78;100.00;94571.22;10533633;28;2560;-74
2023/10/31 07:21:40;;;;;;;;;;;;;;;8.83;100.00;94556.91;10515059;28;2588;-70
2023/10/31 07:26:43;;;;;;;;;;;;;;;8.93;100.00;94557.56;10516252;28;3326;-70
2023/10/31 07:31:48;;;;;;;;;;;;;;;9.01;100.00;94528.50;10488553;28;2621;-71
2023/10/31 07:36:52;;;;;;;;;;;;;;;9.11;100.00;94521.09;10509462;28;2604;-69
2023/10/31 07:41:56;;;;;;;;;;;;;;;9.36;100.00;94535.16;10518326;28;2606;-70
2023/10/31 07:46:59;;;;;;;;;;;;;;;9.61;100.00;94531.19;10504925;28;2551;-72
2023/10/31 07:52:03;;;;;;;;;;;;;;;9.68;100.00;94539.66;10501971;28;2595;-68
2023/10/31 07:57:07;;;;;;;;;;;;;;;9.68;100.00;94548.50;10522681;28;2744;-69
2023/10/31 08:02:11;;;;;;;;;;;;;;;9.58;100.00;94551.34;10529312;28;2760;-72
2023/10/31 08:07:13;;;;;;;;;;;;;;;9.38;100.00;94525.69;10517537;28;2577;-73
2023/10/31 08:12:17;;;;;;;;;;;;;;;9.33;100.00;94525.00;10496394;28;5241;-69
2023/10/31 08:17:33;;;;;;;;;;;;;;;9.55;100.00;94556.53;10515060;28;2681;-69
2023/10/31 08:22:43;;;;;;;;;;;;;;;9.69;100.00;94566.19;10520083;28;2601;-70
2023/10/31 08:27:46;;;;;;;;;;;;;;;9.72;100.00;94600.44;10499915;28;2633;-70
2023/10/31 08:32:49;;;;;;;;;;;;;;;9.66;100.00;94612.38;10514812;28;2721;-72
2023/10/31 08:44:03;;;;;;;;;;;;;;;9.65;100.00;94632.25;10476751;28;2792;-70
2023/10/31 08:49:07;;;;;;;;;;;;;;;9.67;100.00;94646.19;10472802;28;2735;-72
2023/10/31 08:54:21;;;;;;;;;;;;;;;9.74;100.00;94651.97;10513964;28;2703;-71
2023/10/31 09:05:44;;;;;;;;;;;;;;;9.91;100.00;94662.09;10519714;28;2561;-71
2023/10/31 09:10:51;;;;;;;;;;;;;;;9.95;100.00;94667.69;10514442;28;2720;-69
2023/10/31 09:15:55;;;;;;;;;;;;;;;10.02;100.00;94662.72;10486555;28;2677;-70
2023/10/31 09:20:58;;;;;;;;;;;;;;;10.29;100.00;94664.66;10494650;28;2601;-73
2023/10/31 09:26:02;;;;;;;;;;;;;;;10.31;100.00;94664.34;10488939;28;2669;-71
2023/10/31 09:31:09;;;;;;;;;;;;;;;10.10;100.00;94666.59;10507891;28;2624;-73
2023/10/31 09:36:12;;;;;;;;;;;;;;;10.07;100.00;94669.91;10510048;28;3124;-71
2023/10/31 09:41:19;;;;;;;;;;;;;;;10.08;100.00;94676.84;10516673;28;2610;-70
2023/10/31 09:46:24;;;;;;;;;;;;;;;10.22;100.00;94683.03;10494439;28;2626;-69
2023/10/31 09:51:27;;;;;;;;;;;;;;;10.24;100.00;94686.25;10494053;28;2755;-74
2023/10/31 10:02:23;;;;;;;;;;;;;;;10.36;100.00;94673.13;10539504;27;2635;-73
2023/10/31 10:07:26;;;;;;;;;;;;;;;10.56;100.00;94696.13;10509417;28;3002;-72
2023/10/31 10:12:30;;;;;;;;;;;;;;;10.56;100.00;94704.19;10514616;28;5210;-72
2023/10/31 10:17:34;;;;;;;;;;;;;;;10.50;100.00;94716.13;10505927;28;2633;-75
2023/10/31 10:22:37;;;;;;;;;;;;;;;10.66;100.00;94730.03;10509662;28;2636;-69
2023/10/31 10:27:42;;;;;;;;;;;;;;;10.72;100.00;94720.78;10524856;28;2683;-70
2023/10/31 10:32:44;;;;;;;;;;;;;;;10.73;100.00;94725.06;10510317;28;2611;-71
2023/10/31 10:37:48;;;;;;;;;;;;;;;10.77;100.00;94726.84;10497891;28;2653;-69
2023/10/31 10:42:56;;;;;;;;;;;;;;;10.97;100.00;94714.09;10489219;28;3188;-71
2023/10/31 10:48:02;;;;;;;;;;;;;;;11.26;100.00;94727.97;10508254;28;2557;-70
2023/10/31 10:53:08;;;;;;;;;;;;;;;11.55;100.00;94719.50;10504431;28;2967;-70
2023/10/31 10:58:12;;;;;;;;;;;;;;;11.23;100.00;94708.94;10488143;28;2732;-70
2023/10/31 11:03:15;;;;;;;;;;;;;;;11.38;100.00;94712.06;10509319;28;2577;-72
2023/10/31 11:08:21;;;;;;;;;;;;;;;11.75;100.00;94717.44;10523389;28;5324;-71
2023/10/31 11:13:29;;;;;;;;;;;;;;;11.84;100.00;94711.03;10519843;28;2600;-70
2023/10/31 11:18:32;;;;;;;;;;;;;;;11.90;100.00;94709.81;10504595;28;2664;-68
2023/10/31 11:23:38;;;;;;;;;;;;;;;12.12;100.00;94708.97;10491497;28;2589;-70
2023/10/31 11:28:41;;;;;;;;;;;;;;;12.16;100.00;94701.09;10514794;28;2620;-71
2023/10/31 11:33:55;;;;;;;;;;;;;;;12.29;100.00;94705.59;10517021;28;2597;-69
2023/10/31 11:38:58;;;;;;;;;;;;;;;12.24;100.00;94694.94;10493872;28;2609;-71
2023/10/31 11:49:22;;;;;;;;;;;;;;;12.44;100.00;94690.91;10512232;28;2644;-69
2023/10/31 11:54:32;;;;;;;;;;;;;;;12.11;100.00;94687.75;10483139;28;2584;-69
2023/10/31 11:59:40;;;;;;;;;;;;;;;12.50;100.00;94683.47;10495797;28;2676;-70
2023/10/31 12:04:45;;;;;;;;;;;;;;;12.49;100.00;94680.00;10486611;28;2604;-69
2023/10/31 12:09:49;;;;;;;;;;;;;;;12.53;100.00;94672.84;10506894;28;5108;-70
2023/10/31 12:14:52;;;;;;;;;;;;;;;12.71;100.00;94673.69;10511841;28;2626;-70
2023/10/31 12:19:58;;;;;;;;;;;;;;;12.87;100.00;94671.38;10511087;28;2706;-69
2023/10/31 12:25:02;;;;;;;;;;;;;;;12.94;100.00;94664.41;10505640;28;2608;-68
2023/10/31 12:30:09;;;;;;;;;;;;;;;13.02;100.00;94679.00;10510910;28;2666;-68
2023/10/31 12:35:15;;;;;;;;;;;;;;;12.61;100.00;94676.69;10484330;28;2629;-66
2023/10/31 12:40:22;;;;;;;;;;;;;;;12.63;100.00;94677.16;10512749;28;2592;-68
2023/10/31 12:45:26;;;;;;;;;;;;;;;12.77;100.00;94677.84;10489393;28;2904;-70
2023/10/31 12:50:29;;;;;;;;;;;;;;;12.48;100.00;94680.31;10490739;28;2605;-69
2023/10/31 12:55:33;;;;;;;;;;;;;;;12.32;100.00;94682.59;10508072;28;2690;-74
2023/10/31 13:00:39;;;;;;;;;;;;;;;12.14;100.00;94692.50;10483358;28;2653;-72
2023/10/31 13:05:46;;;;;;;;;;;;;;;12.04;100.00;94708.94;10490521;28;2677;-68
2023/10/31 13:10:49;;;;;;;;;;;;;;;11.95;100.00;94716.94;10510116;28;5183;-73
2023/10/31 13:15:53;;;;;;;;;;;;;;;12.03;100.00;94720.81;10518885;27;2616;-69
2023/10/31 13:21:05;;;;;;;;;;;;;;;11.74;100.00;94732.78;10504420;28;2593;-70
2023/10/31 13:26:19;;;;;;;;;;;;;;;11.25;100.00;94753.28;10516497;28;2580;-69
2023/10/31 13:31:26;;;;;;;;;;;;;;;11.17;100.00;94759.38;10501364;28;2570;-69
2023/10/31 13:36:30;;;;;;;;;;;;;;;11.10;100.00;94778.59;10494659;28;2654;-69
2023/10/31 13:41:33;;;;;;;;;;;;;;;10.96;100.00;94774.34;10512530;28;2698;-69
2023/10/31 13:46:38;;;;;;;;;;;;;;;11.20;100.00;94771.44;10495069;28;2672;-70
2023/10/31 13:51:41;;;;;;;;;;;;;;;11.22;100.00;94780.78;10491621;28;2742;-69
2023/10/31 13:56:44;;;;;;;;;;;;;;;11.12;100.00;94782.88;10469873;28;2619;-69
2023/10/31 14:01:47;;;;;;;;;;;;;;;11.07;100.00;94794.56;10508388;28;2728;-69
2023/10/31 14:06:53;;;;;;;;;;;;;;;11.03;100.00;94798.94;10518279;28;2682;-69
2023/10/31 14:12:02;;;;;;;;;;;;;;;11.30;100.00;94812.34;10529955;27;5342;-68
2023/10/31 14:17:07;;;;;;;;;;;;;;;11.16;100.00;94806.19;10492599;28;2554;-71
2023/10/31 14:22:11;;;;;;;;;;;;;;;11.19;100.00;94810.16;10517285;28;2663;-74
2023/10/31 14:27:15;;;;;;;;;;;;;;;11.21;100.00;94816.06;10512310;28;2691;-71
2023/10/31 14:32:21;;;;;;;;;;;;;;;11.04;100.00;94822.03;10504254;28;2634;-71
2023/10/31 14:37:24;;;;;;;;;;;;;;;11.02;100.00;94824.25;10491555;28;2683;-70
2023/10/31 14:42:32;;;;;;;;;;;;;;;10.92;100.00;94830.59;10485946;28;2693;-70
2023/10/31 14:47:37;;;;;;;;;;;;;;;10.85;100.00;94845.53;10487311;28;2695;-71
2023/10/31 14:52:46;;;;;;;;;;;;;;;10.89;100.00;94847.34;10487715;28;2601;-70
2023/10/31 14:58:08;;;;;;;;;;;;;;;10.86;100.00;94858.69;10532517;28;2585;-69
2023/10/31 15:03:11;;;;;;;;;;;;;;;10.89;100.00;94851.94;10519511;28;2588;-70
2023/10/31 15:08:14;;;;;;;;;;;;;;;10.85;100.00;94856.28;10519699;28;5031;-69
2023/10/31 15:13:17;;;;;;;;;;;;;;;10.92;100.00;94856.69;10513801;28;2612;-69
2023/10/31 15:18:20;;;;;;;;;;;;;;;10.90;100.00;94854.31;10510315;28;2669;-70
2023/10/31 15:23:26;;;;;;;;;;;;;;;10.77;100.00;94866.63;10534377;28;2622;-69
2023/10/31 15:28:42;;;;;;;;;;;;;;;10.76;100.00;94875.81;10501557;28;2591;-72
2023/10/31 15:33:45;;;;;;;;;;;;;;;10.65;100.00;94877.06;10516448;28;2647;-68
2023/10/31 15:38:49;;;;;;;;;;;;;;;10.70;100.00;94884.25;10503283;28;2583;-69
2023/10/31 15:43:54;;;;;;;;;;;;;;;10.71;100.00;94873.19;10524120;28;2660;-70
2023/10/31 15:48:58;;;;;;;;;;;;;;;10.66;100.00;94888.63;10522232;28;2817;-69
2023/10/31 15:54:04;;;;;;;;;;;;;;;10.55;100.00;94890.66;10519199;28;2656;-69
2023/10/31 15:59:19;;;;;;;;;;;;;;;10.46;100.00;94895.13;10519293;28;2616;-71
2023/10/31 16:04:25;;;;;;;;;;;;;;;10.37;100.00;94903.06;10503063;28;2592;-75
2023/10/31 16:09:28;;;;;;;;;;;;;;;10.22;100.00;94908.63;10522688;28;2599;-71
2023/10/31 16:14:37;;;;;;;;;;;;;;;10.20;100.00;94918.88;10526793;28;2708;-70
2023/10/31 16:19:42;;;;;;;;;;;;;;;10.26;100.00;94931.19;10534570;28;3027;-70
2023/10/31 16:30:10;;;;;;;;;;;;;;;10.20;100.00;94948.41;10516169;28;2600;-71
2023/10/31 16:35:13;;;;;;;;;;;;;;;10.01;100.00;94959.16;10479128;28;2772;-70
2023/10/31 16:40:17;;;;;;;;;;;;;;;9.87;100.00;94960.97;10511858;28;2657;-70
2023/10/31 16:45:20;;;;;;;;;;;;;;;9.87;100.00;94967.13;10497312;28;2688;-70
2023/10/31 16:50:23;;;;;;;;;;;;;;;9.69;100.00;94975.94;10493326;28;2680;-70
2023/10/31 16:55:29;;;;;;;;;;;;;;;9.52;100.00;94994.38;10510148;28;2660;-73
2023/10/31 17:00:32;;;;;;;;;;;;;;;9.40;100.00;95000.13;10489833;28;2613;-72
2023/10/31 17:05:37;;;;;;;;;;;;;;;9.29;100.00;95007.50;10488773;28;2678;-74
2023/10/31 17:10:44;;;;;;;;;;;;;;;9.28;100.00;95013.94;10492748;28;5081;-75
2023/10/31 17:15:49;;;;;;;;;;;;;;;11.17;100.00;95014.91;10497654;28;2679;-75
2023/10/31 17:20:55;;;;;;;;;;;;;;;11.48;100.00;95014.38;10540590;27;2533;-72
2023/10/31 17:25:59;;;;;;;;;;;;;;;11.94;100.00;95022.38;10515037;27;2559;-71
2023/10/31 17:31:05;;;;;;;;;;;;;;;11.69;100.00;95022.84;10511363;28;2654;-76
2023/10/31 17:36:11;;;;;;;;;;;;;;;10.67;100.00;95036.13;10513782;28;2699;-71
2023/10/31 17:41:14;;;;;;;;;;;;;;;10.15;100.00;95054.03;10512054;28;2647;-69
2023/10/31 17:46:18;;;;;;;;;;;;;;;9.84;100.00;95058.97;10499983;28;2598;-71
2023/10/31 17:51:21;;;;;;;;;;;;;;;9.90;100.00;95073.13;10510712;28;2731;-70
2023/10/31 17:56:26;;;;;;;;;;;;;;;9.63;100.00;95079.84;10499290;28;2881;-70
2023/10/31 18:01:31;;;;;;;;;;;;;;;9.41;100.00;95095.63;10514087;28;2618;-70
2023/10/31 18:06:36;;;;;;;;;;;;;;;9.27;100.00;95100.84;10514532;28;2625;-70
2023/10/31 18:11:39;;;;;;;;;;;;;;;9.27;100.00;95113.44;10501721;28;5341;-71
2023/10/31 18:16:46;;;;;;;;;;;;;;;9.26;100.00;95128.75;10509702;28;2608;-70
2023/10/31 18:21:50;;;;;;;;;;;;;;;9.23;100.00;95131.22;10500951;28;2692;-69
2023/10/31 18:26:53;;;;;;;;;;;;;;;9.20;100.00;95140.59;10507959;28;2565;-72
2023/10/31 18:31:59;;;;;;;;;;;;;;;9.20;100.00;95152.13;10489679;28;2685;-70
2023/10/31 18:37:06;;;;;;;;;;;;;;;9.24;100.00;95148.91;10506574;28;3229;-70
2023/10/31 18:42:12;;;;;;;;;;;;;;;9.27;100.00;95156.38;10496122;28;2795;-67
2023/10/31 18:47:16;;;;;;;;;;;;;;;9.29;100.00;95160.38;10498925;28;2569;-69
2023/10/31 18:52:20;;;;;;;;;;;;;;;9.24;100.00;95173.03;10513087;28;2636;-72
2023/10/31 18:57:25;;;;;;;;;;;;;;;9.21;100.00;95169.00;10493799;28;2577;-75
2023/10/31 19:02:31;;;;;;;;;;;;;;;9.20;100.00;95170.88;10505666;28;2849;-72
2023/10/31 19:07:37;;;;;;;;;;;;;;;9.23;100.00;95176.78;10524971;28;2644;-70
2023/10/31 19:12:41;;;;;;;;;;;;;;;9.22;100.00;95181.34;10507071;28;5141;-69
2023/10/31 19:17:44;;;;;;;;;;;;;;;9.19;100.00;95188.06;10512109;28;2625;-70
2023/10/31 19:22:51;;;;;;;;;;;;;;;9.24;100.00;95206.00;10510104;28;2871;-69
2023/10/31 19:27:55;;;;;;;;;;;;;;;9.28;100.00;95200.88;10506259;28;2714;-70
2023/10/31 19:32:59;;;;;;;;;;;;;;;9.28;100.00;95211.59;10526398;28;2622;-69
2023/10/31 19:38:03;;;;;;;;;;;;;;;9.32;100.00;95218.81;10492697;28;3116;-69
2023/10/31 19:43:11;;;;;;;;;;;;;;;9.32;100.00;95223.38;10498383;28;2717;-67
2023/10/31 19:48:18;;;;;;;;;;;;;;;9.19;100.00;95239.00;10521596;28;2640;-68
2023/10/31 19:53:30;;;;;;;;;;;;;;;9.04;100.00;95233.75;10529111;28;2624;-72
2023/10/31 19:58:35;;;;;;;;;;;;;;;8.92;100.00;95241.31;10532220;27;2543;-67
2023/10/31 20:03:39;;;;;;;;;;;;;;;8.86;100.00;95245.09;10541060;27;2632;-71
2023/10/31 20:08:42;;;;;;;;;;;;;;;8.76;100.00;95253.16;10522950;28;2648;-71
2023/10/31 20:13:52;;;;;;;;;;;;;;;8.72;100.00;95252.94;10534562;28;2715;-69
2023/10/31 20:18:58;;;;;;;;;;;;;;;8.77;100.00;95260.13;10524663;28;2637;-68
2023/10/31 20:24:03;;;;;;;;;;;;;;;8.91;100.00;95263.84;10517212;28;2567;-69
2023/10/31 20:29:08;;;;;;;;;;;;;;;9.02;100.00;95257.34;10498907;28;2589;-69
2023/10/31 20:34:13;;;;;;;;;;;;;;;9.00;100.00;95254.13;10498508;28;2613;-68
2023/10/31 20:39:16;;;;;;;;;;;;;;;9.08;100.00;95250.06;10501221;28;2578;-70
2023/10/31 20:44:19;;;;;;;;;;;;;;;9.13;100.00;95250.84;10486001;28;2991;-69
2023/10/31 20:49:26;;;;;;;;;;;;;;;9.16;100.00;95247.63;10497380;28;2675;-68
2023/10/31 20:54:30;;;;;;;;;;;;;;;9.19;100.00;95256.97;10489562;28;2598;-67
2023/10/31 20:59:34;;;;;;;;;;;;;;;9.25;100.00;95255.09;10517019;28;2595;-68
2023/10/31 21:04:38;;;;;;;;;;;;;;;9.31;100.00;95251.28;10512538;28;2644;-69
2023/10/31 21:09:44;;;;;;;;;;;;;;;9.33;100.00;95257.97;10508614;28;2739;-67
2023/10/31 21:14:47;;;;;;;;;;;;;;;9.26;100.00;95275.44;10497284;28;2706;-69
2023/10/31 21:19:51;;;;;;;;;;;;;;;9.18;100.00;95269.59;10480147;28;2587;-68
2023/10/31 21:24:57;;;;;;;;;;;;;;;9.13;100.00;95280.34;10515326;28;2631;-70
2023/10/31 21:30:01;;;;;;;;;;;;;;;9.17;100.00;95284.09;10513172;28;2662;-68
2023/10/31 21:35:04;;;;;;;;;;;;;;;9.18;100.00;95288.38;10499575;28;2567;-68
2023/10/31 21:40:11;;;;;;;;;;;;;;;9.13;100.00;95285.72;10472757;28;2565;-68
2023/10/31 21:45:14;;;;;;;;;;;;;;;9.07;100.00;95297.53;10524170;28;2696;-68
2023/10/31 21:50:18;;;;;;;;;;;;;;;8.96;100.00;95295.16;10492754;28;2538;-68
2023/10/31 21:55:20;;;;;;;;;;;;;;;8.95;100.00;95294.38;10488919;28;2692;-68
2023/10/31 22:00:29;;;;;;;;;;;;;;;8.79;100.00;95301.69;10510125;28;2547;-73
2023/10/31 22:05:32;;;;;;;;;;;;;;;8.77;100.00;95305.69;10506145;28;2723;-69
2023/10/31 22:10:37;;;;;;;;;;;;;;;8.73;100.00;95293.94;10493450;28;5153;-69
2023/10/31 22:15:41;;;;;;;;;;;;;;;8.75;100.00;95289.09;10485955;28;2748;-69
2023/10/31 22:20:47;;;;;;;;;;;;;;;8.83;100.00;95294.69;10514261;28;2624;-68
2023/10/31 22:25:50;;;;;;;;;;;;;;;8.98;100.00;95301.06;10510983;28;2553;-68
2023/10/31 22:30:55;;;;;;;;;;;;;;;9.00;100.00;95299.72;10528882;28;2596;-69
2023/10/31 22:35:58;;;;;;;;;;;;;;;9.10;100.00;95307.72;10494345;28;2756;-69
2023/10/31 22:41:01;;;;;;;;;;;;;;;9.14;100.00;95297.22;10489080;28;2709;-70
2023/10/31 22:46:06;;;;;;;;;;;;;;;9.15;100.00;95299.63;10513132;28;2610;-74
2023/10/31 22:51:09;;;;;;;;;;;;;;;9.26;100.00;95307.63;10508637;28;2686;-69
2023/10/31 22:56:12;;;;;;;;;;;;;;;9.26;100.00;95311.13;10493729;28;2589;-68
2023/10/31 23:01:15;;;;;;;;;;;;;;;9.28;100.00;95318.88;10506069;28;2665;-68
2023/10/31 23:06:19;;;;;;;;;;;;;;;9.32;100.00;95314.56;10526145;28;2612;-69
2023/10/31 23:11:25;;;;;;;;;;;;;;;9.37;100.00;95311.88;10528042;28;2664;-69
2023/10/31 23:16:33;;;;;;;;;;;;;;;9.37;100.00;95311.88;10484679;28;2604;-69
2023/10/31 23:21:36;;;;;;;;;;;;;;;9.38;100.00;95308.91;10501614;28;2752;-69
2023/10/31 23:26:41;;;;;;;;;;;;;;;9.33;100.00;95311.63;10516041;28;2836;-69
2023/10/31 23:31:46;;;;;;;;;;;;;;;9.05;100.00;95313.09;10491284;28;2563;-68
2023/10/31 23:36:51;;;;;;;;;;;;;;;8.94;100.00;95314.22;10514563;28;2631;-69
2023/10/31 23:41:54;;;;;;;;;;;;;;;8.90;100.00;95318.50;10527636;28;2597;-68
2023/10/31 23:46:58;;;;;;;;;;;;;;;8.78;100.00;95321.50;10495056;28;2652;-69
2023/10/31 23:52:01;;;;;;;;;;;;;;;8.73;100.00;95310.00;10498423;28;3203;-69
2023/10/31 23:57:04;;;;;;;;;;;;;;;8.60;100.00;95314.88;10499587;28;2638;-67
